createdAt,value
2023-04-15T00:02:00.548Z,6.54
2023-04-15T00:05:02.006Z,6.53
2023-04-15T00:08:03.512Z,6.53
2023-04-15T00:11:05.043Z,6.57
2023-04-15T00:14:06.447Z,6.58
2023-04-15T00:17:07.925Z,6.61
2023-04-15T00:20:09.775Z,6.64
2023-04-15T00:23:11.214Z,6.63
2023-04-15T00:26:12.603Z,6.59
2023-04-15T00:29:14.089Z,6.59
2023-04-15T00:32:15.550Z,6.61
2023-04-15T00:35:17.044Z,6.64
2023-04-15T00:38:18.530Z,6.56
2023-04-15T00:41:19.990Z,6.55
2023-04-15T00:44:21.470Z,6.47
2023-04-15T00:47:23.307Z,6.50
2023-04-15T00:50:24.966Z,6.48
2023-04-15T00:53:26.405Z,6.53
2023-04-15T00:56:29.334Z,6.43
2023-04-15T00:59:31.441Z,6.37
2023-04-15T01:02:33.056Z,6.35
2023-04-15T01:05:36.838Z,6.41
2023-04-15T01:08:38.524Z,6.42
2023-04-15T01:11:39.986Z,6.37
2023-04-15T01:14:43.037Z,6.33
2023-04-15T01:17:44.676Z,6.29
2023-04-15T01:20:46.084Z,6.34
2023-04-15T01:23:47.917Z,6.34
2023-04-15T01:26:49.937Z,6.34
2023-04-15T01:29:51.363Z,6.26
2023-04-15T01:32:53.668Z,6.29
2023-04-15T01:35:55.169Z,6.26
2023-04-15T01:39:00.150Z,6.25
2023-04-15T01:42:01.846Z,6.25
2023-04-15T01:45:03.900Z,6.20
2023-04-15T01:48:05.567Z,6.19
2023-04-15T01:51:06.986Z,6.21
2023-04-15T01:54:08.362Z,6.18
2023-04-15T01:57:10.077Z,6.20
2023-04-15T02:00:11.907Z,6.22
2023-04-15T02:03:17.046Z,6.26
2023-04-15T02:06:18.596Z,6.29
2023-04-15T02:09:20.050Z,6.23
2023-04-15T02:12:21.449Z,6.23
2023-04-15T02:15:22.947Z,6.23
2023-04-15T02:18:25.074Z,6.22
2023-04-15T02:21:26.944Z,6.21
2023-04-15T02:24:30.014Z,6.20
2023-04-15T02:27:31.416Z,6.14
2023-04-15T02:30:33.899Z,6.18
2023-04-15T02:33:37.044Z,6.16
2023-04-15T02:36:38.484Z,6.16
2023-04-15T02:39:40.292Z,6.19
2023-04-15T02:42:42.540Z,6.18
2023-04-15T02:45:46.813Z,6.20
2023-04-15T02:48:49.260Z,6.20
2023-04-15T02:51:50.955Z,6.23
2023-04-15T02:54:53.387Z,6.23
2023-04-15T02:57:54.812Z,6.23
2023-04-15T03:00:56.319Z,6.22
2023-04-15T03:03:57.801Z,6.25
2023-04-15T03:06:59.391Z,6.28
2023-04-15T03:10:01.398Z,6.29
2023-04-15T03:13:02.835Z,6.35
2023-04-15T03:16:04.682Z,6.32
2023-04-15T03:19:07.161Z,6.30
2023-04-15T03:22:09.454Z,6.36
2023-04-15T03:25:10.901Z,6.32
2023-04-15T03:28:12.911Z,6.29
2023-04-15T03:31:14.450Z,6.32
2023-04-15T03:34:15.992Z,6.35
2023-04-15T03:37:17.393Z,6.38
2023-04-15T03:40:18.991Z,6.37
2023-04-15T03:43:20.400Z,6.35
2023-04-15T03:46:21.854Z,6.35
2023-04-15T03:49:23.254Z,6.33
2023-04-15T03:52:24.720Z,6.31
2023-04-15T03:55:26.122Z,6.29
2023-04-15T03:58:27.842Z,6.32
2023-04-15T04:01:29.457Z,6.27
2023-04-15T04:04:31.071Z,6.25
2023-04-15T04:07:32.592Z,6.24
2023-04-15T04:10:34.015Z,6.23
2023-04-15T04:13:35.469Z,6.22
2023-04-15T04:16:36.997Z,6.24
2023-04-15T04:19:38.451Z,6.26
2023-04-15T04:22:40.593Z,6.27
2023-04-15T04:25:42.050Z,6.29
2023-04-15T04:28:43.467Z,6.36
2023-04-15T04:31:44.956Z,6.38
2023-04-15T04:34:46.442Z,6.36
2023-04-15T04:37:47.866Z,6.40
2023-04-15T04:40:49.331Z,6.44
2023-04-15T04:43:50.694Z,6.42
2023-04-15T04:46:52.146Z,6.39
2023-04-15T04:49:53.502Z,6.37
2023-04-15T04:52:54.922Z,6.41
2023-04-15T04:55:56.307Z,6.45
2023-04-15T04:58:57.761Z,6.42
2023-04-15T05:01:59.343Z,6.44
2023-04-15T05:05:00.983Z,6.49
2023-04-15T05:08:02.785Z,6.50
2023-04-15T05:11:04.291Z,6.47
2023-04-15T05:14:05.695Z,6.47
2023-04-15T05:17:07.604Z,6.48
2023-04-15T05:20:09.252Z,6.53
2023-04-15T05:23:10.723Z,6.53
2023-04-15T05:26:12.159Z,6.48
2023-04-15T05:29:13.640Z,6.50
2023-04-15T05:32:15.095Z,6.51
2023-04-15T05:35:16.662Z,6.53
2023-04-15T05:38:18.157Z,6.55
2023-04-15T05:41:20.026Z,6.60
2023-04-15T05:44:21.488Z,6.61
2023-04-15T05:47:23.007Z,6.61
2023-04-15T05:50:24.538Z,6.63
2023-04-15T05:53:26.052Z,6.65
2023-04-15T05:56:27.504Z,6.74
2023-04-15T05:59:28.900Z,6.73
2023-04-15T06:02:30.455Z,6.71
2023-04-15T06:05:31.917Z,6.73
2023-04-15T06:08:33.349Z,6.73
2023-04-15T06:11:34.772Z,6.74
2023-04-15T06:14:36.218Z,6.80
2023-04-15T06:17:37.724Z,6.84
2023-04-15T06:20:39.290Z,6.88
2023-04-15T06:23:40.813Z,6.87
2023-04-15T06:26:42.206Z,6.88
2023-04-15T06:29:43.639Z,6.91
2023-04-15T06:32:45.105Z,6.88
2023-04-15T06:35:46.783Z,6.88
2023-04-15T06:38:48.198Z,6.91
2023-04-15T06:41:49.629Z,6.94
2023-04-15T06:44:51.094Z,7.01
2023-04-15T06:47:52.590Z,7.02
2023-04-15T06:50:54.656Z,6.99
2023-04-15T06:53:56.149Z,6.99
2023-04-15T06:56:57.718Z,6.97
2023-04-15T06:59:59.289Z,6.94
2023-04-15T07:03:01.067Z,6.94
2023-04-15T07:06:02.515Z,6.91
2023-04-15T07:09:04.279Z,6.93
2023-04-15T07:12:05.961Z,6.95
2023-04-15T07:15:07.687Z,6.96
2023-04-15T07:18:09.096Z,6.96
2023-04-15T07:21:10.690Z,6.98
2023-04-15T07:24:12.074Z,7.03
2023-04-15T07:27:13.551Z,7.05
2023-04-15T07:30:15.109Z,7.08
2023-04-15T07:33:16.546Z,7.06
2023-04-15T07:36:17.955Z,7.08
2023-04-15T07:39:19.377Z,7.10
2023-04-15T07:42:21.178Z,7.13
2023-04-15T07:45:22.569Z,7.18
2023-04-15T07:48:23.964Z,7.22
2023-04-15T07:51:25.606Z,7.23
2023-04-15T07:54:27.012Z,7.24
2023-04-15T07:57:28.428Z,7.31
2023-04-15T08:00:29.822Z,7.32
2023-04-15T08:03:31.322Z,7.38
2023-04-15T08:06:32.778Z,7.30
2023-04-15T08:09:34.257Z,7.33
2023-04-15T08:12:35.718Z,7.34
2023-04-15T08:15:37.127Z,7.31
2023-04-15T08:18:38.558Z,7.36
2023-04-15T08:21:39.990Z,7.36
2023-04-15T08:24:41.622Z,7.30
2023-04-15T08:27:42.998Z,7.33
2023-04-15T08:30:44.427Z,7.40
2023-04-15T08:33:46.271Z,7.41
2023-04-15T08:36:47.772Z,7.44
2023-04-15T08:39:49.179Z,7.48
2023-04-15T08:42:54.468Z,7.52
2023-04-15T08:45:56.195Z,7.53
2023-04-15T08:48:58.609Z,7.58
2023-04-15T08:52:00.140Z,7.61
2023-04-15T08:55:02.979Z,7.67
2023-04-15T08:58:05.513Z,7.68
2023-04-15T09:01:07.170Z,7.67
2023-04-15T09:04:08.786Z,7.63
2023-04-15T09:07:10.254Z,7.63
2023-04-15T09:10:11.782Z,7.67
2023-04-15T09:13:13.781Z,7.67
2023-04-15T09:16:15.206Z,7.67
2023-04-15T09:19:24.396Z,7.69
2023-04-15T09:22:32.247Z,7.70
2023-04-15T09:25:34.947Z,7.75
2023-04-15T09:28:42.936Z,7.78
2023-04-15T09:31:44.409Z,7.78
2023-04-15T09:34:47.949Z,7.82
2023-04-15T09:37:50.696Z,7.88
2023-04-15T09:40:52.155Z,7.92
2023-04-15T09:43:53.565Z,8.00
2023-04-15T09:46:54.996Z,8.09
2023-04-15T09:49:57.720Z,8.12
2023-04-15T09:52:59.188Z,8.15
2023-04-15T09:56:00.988Z,8.28
2023-04-15T09:59:02.514Z,8.46
2023-04-15T10:02:06.954Z,8.56
2023-04-15T10:05:15.027Z,8.74
2023-04-15T10:08:19.424Z,8.87
2023-04-15T10:11:22.057Z,8.91
2023-04-15T10:14:25.666Z,8.98
2023-04-15T10:17:29.341Z,9.11
2023-04-15T10:20:33.694Z,9.25
2023-04-15T10:23:35.674Z,9.34
2023-04-15T10:26:38.063Z,9.41
2023-04-15T10:29:39.954Z,9.54
2023-04-15T10:32:42.304Z,9.63
2023-04-15T10:35:44.361Z,9.60
2023-04-15T10:38:46.224Z,9.66
2023-04-15T10:42:06.525Z,9.66
2023-04-15T10:45:16.655Z,9.87
2023-04-15T10:48:18.432Z,9.97
2023-04-15T10:51:30.778Z,10.03
2023-04-15T10:54:33.093Z,10.00
2023-04-15T10:57:37.753Z,9.93
2023-04-15T11:00:39.202Z,10.00
2023-04-15T11:03:43.295Z,10.14
2023-04-15T11:06:44.991Z,10.36
2023-04-15T11:09:46.423Z,10.56
2023-04-15T11:12:52.003Z,10.80
2023-04-15T11:15:56.725Z,11.15
2023-04-15T11:18:58.203Z,11.32
2023-04-15T11:22:07.440Z,11.50
2023-04-15T11:25:08.980Z,11.51
2023-04-15T11:28:12.024Z,11.53
2023-04-15T11:31:15.796Z,11.87
2023-04-15T11:34:23.065Z,12.13
2023-04-15T11:37:29.378Z,12.04
2023-04-15T11:40:31.506Z,12.12
2023-04-15T11:43:32.973Z,12.08
2023-04-15T11:46:34.391Z,12.19
2023-04-15T11:49:35.846Z,12.45
2023-04-15T11:52:37.280Z,12.41
2023-04-15T11:56:05.376Z,12.50
2023-04-15T11:59:06.788Z,12.42
2023-04-15T12:02:12.530Z,12.41
2023-04-15T12:05:14.065Z,12.35
2023-04-15T12:08:15.515Z,12.32
2023-04-15T12:11:17.400Z,12.52
2023-04-15T12:14:30.812Z,12.77
2023-04-15T12:17:51.025Z,12.90
2023-04-15T12:20:53.303Z,12.88
2023-04-15T12:23:56.610Z,12.85
2023-04-15T12:27:01.391Z,12.70
2023-04-15T12:30:06.493Z,12.46
2023-04-15T12:33:08.014Z,12.22
2023-04-15T12:36:09.465Z,12.25
2023-04-15T12:39:10.954Z,12.09
2023-04-15T12:42:12.633Z,12.02
2023-04-15T12:45:14.187Z,12.08
2023-04-15T12:48:15.634Z,12.18
2023-04-15T12:51:17.024Z,12.31
2023-04-15T12:54:18.951Z,12.46
2023-04-15T12:57:20.322Z,12.57
2023-04-15T13:00:21.854Z,12.53
2023-04-15T13:03:23.413Z,12.57
2023-04-15T13:06:24.913Z,12.64
2023-04-15T13:09:26.302Z,12.59
2023-04-15T13:12:27.745Z,12.59
2023-04-15T13:15:29.606Z,12.57
2023-04-15T13:18:30.993Z,12.52
2023-04-15T13:21:32.763Z,12.43
2023-04-15T13:24:34.162Z,12.40
2023-04-15T13:27:35.711Z,12.41
2023-04-15T13:30:37.982Z,12.50
2023-04-15T13:33:39.428Z,12.50
2023-04-15T13:36:40.848Z,12.52
2023-04-15T13:39:42.275Z,12.60
2023-04-15T13:42:43.675Z,12.69
2023-04-15T13:45:46.489Z,12.50
2023-04-15T13:48:47.914Z,12.51
2023-04-15T13:51:51.407Z,12.43
2023-04-15T13:55:18.227Z,12.53
2023-04-15T13:58:14.218Z,12.63
2023-04-15T14:01:15.653Z,12.56
2023-04-15T14:04:17.137Z,12.65
2023-04-15T14:07:18.706Z,12.73
2023-04-15T14:10:20.354Z,12.80
2023-04-15T14:13:21.764Z,12.71
2023-04-15T14:16:23.252Z,12.65
2023-04-15T14:19:24.718Z,12.50
2023-04-15T14:22:26.133Z,12.33
2023-04-15T14:25:33.606Z,12.57
2023-04-15T14:28:35.345Z,12.86
2023-04-15T14:31:37.784Z,12.95
2023-04-15T14:34:40.869Z,12.86
2023-04-15T14:37:42.307Z,12.82
2023-04-15T14:40:43.716Z,12.71
2023-04-15T14:43:45.180Z,12.60
2023-04-15T14:46:46.696Z,12.59
2023-04-15T14:49:48.184Z,12.93
2023-04-15T14:52:49.583Z,12.95
2023-04-15T14:55:51.031Z,12.88
2023-04-15T14:58:52.510Z,12.96
2023-04-15T15:01:54.046Z,12.84
2023-04-15T15:04:56.292Z,12.72
2023-04-15T15:07:58.964Z,12.66
2023-04-15T15:11:00.439Z,12.59
2023-04-15T15:14:01.938Z,12.52
2023-04-15T15:17:03.444Z,12.47
2023-04-15T15:20:05.281Z,12.43
2023-04-15T15:23:06.719Z,12.40
2023-04-15T15:26:08.289Z,12.35
2023-04-15T15:29:09.735Z,12.16
2023-04-15T15:32:11.197Z,11.97
2023-04-15T15:35:12.594Z,11.84
2023-04-15T15:38:14.150Z,11.78
2023-04-15T15:41:15.598Z,11.81
2023-04-15T15:44:17.100Z,11.84
2023-04-15T15:47:21.130Z,11.86
2023-04-15T15:50:22.869Z,11.94
2023-04-15T15:53:24.334Z,12.02
2023-04-15T15:56:25.821Z,12.02
2023-04-15T15:59:27.304Z,12.06
2023-04-15T16:02:52.410Z,12.02
2023-04-15T16:05:50.285Z,11.95
2023-04-15T16:08:51.697Z,11.89
2023-04-15T16:11:53.171Z,11.83
2023-04-15T16:14:54.590Z,11.79
2023-04-15T16:17:56.097Z,11.73
2023-04-15T16:20:58.258Z,11.62
2023-04-15T16:23:59.721Z,11.52
2023-04-15T16:27:01.160Z,11.50
2023-04-15T16:30:03.295Z,11.46
2023-04-15T16:33:05.447Z,11.44
2023-04-15T16:36:07.117Z,11.37
2023-04-15T16:39:08.535Z,11.29
2023-04-15T16:42:10.376Z,11.24
2023-04-15T16:45:11.933Z,11.19
2023-04-15T16:48:13.344Z,11.16
2023-04-15T16:51:14.818Z,11.11
2023-04-15T16:54:16.313Z,11.05
2023-04-15T16:57:17.753Z,11.04
2023-04-15T17:00:19.703Z,10.99
2023-04-15T17:03:21.250Z,10.92
2023-04-15T17:06:22.896Z,10.90
2023-04-15T17:09:24.416Z,10.88
2023-04-15T17:12:25.899Z,10.85
2023-04-15T17:15:27.551Z,10.79
2023-04-15T17:18:29.247Z,10.78
2023-04-15T17:21:30.701Z,10.76
2023-04-15T17:24:32.203Z,10.72
2023-04-15T17:27:33.695Z,10.74
2023-04-15T17:30:35.173Z,10.71
2023-04-15T17:34:01.518Z,10.67
2023-04-15T17:36:59.579Z,10.67
2023-04-15T17:40:01.367Z,10.65
2023-04-15T17:43:02.746Z,10.61
2023-04-15T17:46:05.367Z,10.57
2023-04-15T17:49:06.994Z,10.52
2023-04-15T17:52:08.554Z,10.50
2023-04-15T17:55:09.981Z,10.47
2023-04-15T17:58:11.523Z,10.46
2023-04-15T18:01:12.919Z,10.44
2023-04-15T18:04:14.554Z,10.43
2023-04-15T18:07:16.161Z,10.37
2023-04-15T18:10:17.693Z,10.36
2023-04-15T18:13:19.098Z,10.32
2023-04-15T18:16:20.601Z,10.30
2023-04-15T18:19:22.088Z,10.28
2023-04-15T18:22:23.502Z,10.23
2023-04-15T18:25:25.322Z,10.22
2023-04-15T18:28:26.762Z,10.18
2023-04-15T18:31:28.230Z,10.14
2023-04-15T18:34:30.112Z,10.10
2023-04-15T18:37:32.176Z,10.08
2023-04-15T18:40:33.616Z,10.02
2023-04-15T18:43:35.024Z,10.03
2023-04-15T18:46:36.472Z,9.93
2023-04-15T18:49:37.964Z,9.88
2023-04-15T18:52:39.372Z,9.84
2023-04-15T18:55:40.871Z,9.74
2023-04-15T18:59:10.295Z,9.70
2023-04-15T19:02:04.062Z,9.67
2023-04-15T19:05:05.784Z,9.60
2023-04-15T19:08:07.237Z,9.60
2023-04-15T19:11:08.944Z,9.56
2023-04-15T19:14:11.169Z,9.52
2023-04-15T19:17:12.639Z,9.47
2023-04-15T19:20:14.078Z,9.47
2023-04-15T19:23:15.944Z,9.42
2023-04-15T19:26:17.325Z,9.39
2023-04-15T19:29:18.775Z,9.35
2023-04-15T19:32:20.232Z,9.29
2023-04-15T19:35:21.683Z,9.26
2023-04-15T19:38:23.085Z,9.20
2023-04-15T19:41:24.536Z,9.13
2023-04-15T19:44:25.905Z,9.11
2023-04-15T19:47:28.250Z,9.06
2023-04-15T19:50:29.674Z,9.06
2023-04-15T19:53:31.071Z,9.03
2023-04-15T19:56:34.393Z,9.07
2023-04-15T19:59:36.012Z,9.08
2023-04-15T20:02:37.564Z,9.07
2023-04-15T20:05:39.091Z,9.04
2023-04-15T20:08:40.552Z,9.05
2023-04-15T20:12:46.637Z,9.03
2023-04-15T20:15:03.589Z,9.01
2023-04-15T20:18:05.055Z,9.03
2023-04-15T20:21:06.510Z,9.02
2023-04-15T20:24:08.074Z,9.03
2023-04-15T20:27:09.496Z,9.01
2023-04-15T20:30:11.271Z,8.99
2023-04-15T20:33:13.419Z,9.00
2023-04-15T20:36:14.920Z,8.97
2023-04-15T20:39:16.334Z,8.92
2023-04-15T20:42:19.065Z,8.86
2023-04-15T20:45:20.451Z,8.83
2023-04-15T20:48:23.576Z,8.81
2023-04-15T20:51:24.976Z,8.78
2023-04-15T20:54:26.402Z,8.75
2023-04-15T20:57:27.969Z,8.68
2023-04-15T21:00:29.431Z,8.66
2023-04-15T21:03:31.091Z,8.61
2023-04-15T21:06:33.250Z,8.54
2023-04-15T21:09:34.659Z,8.45
2023-04-15T21:12:36.096Z,8.42
2023-04-15T21:15:37.508Z,8.41
2023-04-15T21:18:38.896Z,8.35
2023-04-15T21:21:40.328Z,8.32
2023-04-15T21:24:41.762Z,8.28
2023-04-15T21:27:43.157Z,8.23
2023-04-15T21:30:44.590Z,8.19
2023-04-15T21:33:46.656Z,8.18
2023-04-15T21:36:48.108Z,8.16
2023-04-15T21:39:49.524Z,8.11
2023-04-15T21:42:51.262Z,8.08
2023-04-15T21:46:22.440Z,8.06
2023-04-15T21:49:14.596Z,8.00
2023-04-15T21:52:16.023Z,8.01
2023-04-15T21:55:17.426Z,7.98
2023-04-15T21:58:18.878Z,7.95
2023-04-15T22:01:20.525Z,7.92
2023-04-15T22:04:22.105Z,7.88
2023-04-15T22:07:23.577Z,7.83
2023-04-15T22:10:25.074Z,7.83
2023-04-15T22:13:26.499Z,7.81
2023-04-15T22:16:28.211Z,7.81
2023-04-15T22:19:30.202Z,7.77
2023-04-15T22:22:43.246Z,7.70
2023-04-15T22:25:45.045Z,7.53
2023-04-15T22:28:46.443Z,7.63
2023-04-15T22:31:47.894Z,7.68
2023-04-15T22:34:49.340Z,7.67
2023-04-15T22:37:52.215Z,7.73
2023-04-15T22:40:53.593Z,7.71
2023-04-15T22:43:55.004Z,7.69
2023-04-15T22:46:56.410Z,7.70
2023-04-15T22:49:57.821Z,7.70
2023-04-15T22:52:59.235Z,7.67
2023-04-15T22:56:00.681Z,7.59
2023-04-15T22:59:02.100Z,7.55
2023-04-15T23:02:03.622Z,7.58
2023-04-15T23:05:12.574Z,7.59
2023-04-15T23:08:14.869Z,7.57
2023-04-15T23:11:16.335Z,7.57
2023-04-15T23:14:17.737Z,7.58
2023-04-15T23:17:19.176Z,7.58
2023-04-15T23:20:20.560Z,7.55
2023-04-15T23:23:22.001Z,7.53
2023-04-15T23:26:23.623Z,7.53
2023-04-15T23:29:25.071Z,7.51
2023-04-15T23:32:26.882Z,7.53
2023-04-15T23:35:28.302Z,7.49
2023-04-15T23:38:29.689Z,7.47
2023-04-15T23:41:31.133Z,7.46
2023-04-15T23:44:32.557Z,7.45
2023-04-15T23:47:34.006Z,7.43
2023-04-15T23:50:35.445Z,7.42
2023-04-15T23:53:36.840Z,7.44
2023-04-15T23:56:38.288Z,7.41
2023-04-15T23:59:39.678Z,7.38
